sensor_id;sensor_type;location;lat;lon;timestamp;P1;durP1;ratioP1;P2;durP2;ratioP2
4595;SDS011;2310;49.978;8.742;2024-02-04T00:01:00;5.20;;;3.60;;
4595;SDS011;2310;49.978;8.742;2024-02-04T00:05:02;5.13;;;3.20;;
4595;SDS011;2310;49.978;8.742;2024-02-04T00:09:03;4.27;;;3.03;;
4595;SDS011;2310;49.978;8.742;2024-02-04T00:13:05;5.03;;;3.13;;
4595;SDS011;2310;49.978;8.742;2024-02-04T00:17:07;5.07;;;3.23;;
4595;SDS011;2310;49.978;8.742;2024-02-04T00:21:08;5.37;;;3.30;;
4595;SDS011;2310;49.978;8.742;2024-02-04T00:25:10;5.63;;;2.93;;
4595;SDS011;2310;49.978;8.742;2024-02-04T00:29:12;4.70;;;2.93;;
4595;SDS011;2310;49.978;8.742;2024-02-04T00:33:14;4.63;;;2.73;;
4595;SDS011;2310;49.978;8.742;2024-02-04T00:37:16;4.33;;;3.00;;
4595;SDS011;2310;49.978;8.742;2024-02-04T00:41:17;5.60;;;3.40;;
4595;SDS011;2310;49.978;8.742;2024-02-04T00:45:18;4.97;;;2.67;;
4595;SDS011;2310;49.978;8.742;2024-02-04T00:49:20;4.37;;;2.80;;
4595;SDS011;2310;49.978;8.742;2024-02-04T00:53:21;4.37;;;2.73;;
4595;SDS011;2310;49.978;8.742;2024-02-04T00:57:22;4.43;;;2.53;;
4595;SDS011;2310;49.978;8.742;2024-02-04T01:01:24;4.30;;;2.33;;
4595;SDS011;2310;49.978;8.742;2024-02-04T01:05:26;4.63;;;2.73;;
4595;SDS011;2310;49.978;8.742;2024-02-04T01:09:28;4.27;;;2.70;;
4595;SDS011;2310;49.978;8.742;2024-02-04T01:13:30;6.23;;;3.50;;
4595;SDS011;2310;49.978;8.742;2024-02-04T01:17:32;5.03;;;3.23;;
4595;SDS011;2310;49.978;8.742;2024-02-04T01:21:35;3.97;;;2.50;;
4595;SDS011;2310;49.978;8.742;2024-02-04T01:25:36;4.63;;;2.80;;
4595;SDS011;2310;49.978;8.742;2024-02-04T01:29:39;4.27;;;2.37;;
4595;SDS011;2310;49.978;8.742;2024-02-04T01:33:40;4.03;;;2.30;;
4595;SDS011;2310;49.978;8.742;2024-02-04T01:37:42;4.57;;;2.60;;
4595;SDS011;2310;49.978;8.742;2024-02-04T01:41:48;4.60;;;2.43;;
4595;SDS011;2310;49.978;8.742;2024-02-04T01:45:50;4.00;;;2.27;;
4595;SDS011;2310;49.978;8.742;2024-02-04T01:49:52;3.87;;;2.17;;
4595;SDS011;2310;49.978;8.742;2024-02-04T01:53:54;4.07;;;2.30;;
4595;SDS011;2310;49.978;8.742;2024-02-04T01:57:55;4.27;;;2.50;;
4595;SDS011;2310;49.978;8.742;2024-02-04T02:02:01;4.40;;;2.37;;
4595;SDS011;2310;49.978;8.742;2024-02-04T02:06:00;3.40;;;1.80;;
4595;SDS011;2310;49.978;8.742;2024-02-04T02:10:02;3.93;;;2.23;;
4595;SDS011;2310;49.978;8.742;2024-02-04T02:14:05;4.43;;;2.20;;
4595;SDS011;2310;49.978;8.742;2024-02-04T02:18:11;4.70;;;2.67;;
4595;SDS011;2310;49.978;8.742;2024-02-04T02:22:29;5.33;;;3.27;;
4595;SDS011;2310;49.978;8.742;2024-02-04T02:26:32;4.27;;;2.90;;
4595;SDS011;2310;49.978;8.742;2024-02-04T02:30:37;4.70;;;3.40;;
4595;SDS011;2310;49.978;8.742;2024-02-04T02:34:38;5.57;;;3.33;;
4595;SDS011;2310;49.978;8.742;2024-02-04T02:38:52;7.03;;;3.80;;
4595;SDS011;2310;49.978;8.742;2024-02-04T02:42:56;5.20;;;3.37;;
4595;SDS011;2310;49.978;8.742;2024-02-04T02:46:59;5.77;;;3.57;;
4595;SDS011;2310;49.978;8.742;2024-02-04T02:51:03;5.20;;;3.57;;
4595;SDS011;2310;49.978;8.742;2024-02-04T02:55:06;5.07;;;3.03;;
4595;SDS011;2310;49.978;8.742;2024-02-04T02:59:07;5.27;;;3.60;;
4595;SDS011;2310;49.978;8.742;2024-02-04T03:03:09;4.90;;;3.00;;
4595;SDS011;2310;49.978;8.742;2024-02-04T03:07:10;4.93;;;3.23;;
4595;SDS011;2310;49.978;8.742;2024-02-04T03:11:12;5.80;;;3.50;;
4595;SDS011;2310;49.978;8.742;2024-02-04T03:15:13;6.10;;;3.80;;
4595;SDS011;2310;49.978;8.742;2024-02-04T03:19:14;5.23;;;3.60;;
4595;SDS011;2310;49.978;8.742;2024-02-04T03:23:16;5.03;;;3.13;;
4595;SDS011;2310;49.978;8.742;2024-02-04T03:27:17;6.60;;;3.00;;
4595;SDS011;2310;49.978;8.742;2024-02-04T03:31:19;5.43;;;2.90;;
4595;SDS011;2310;49.978;8.742;2024-02-04T03:35:22;4.83;;;3.10;;
4595;SDS011;2310;49.978;8.742;2024-02-04T03:39:23;5.70;;;3.37;;
4595;SDS011;2310;49.978;8.742;2024-02-04T03:43:24;6.87;;;3.67;;
4595;SDS011;2310;49.978;8.742;2024-02-04T03:47:26;5.00;;;3.07;;
4595;SDS011;2310;49.978;8.742;2024-02-04T03:51:27;5.23;;;3.27;;
4595;SDS011;2310;49.978;8.742;2024-02-04T03:55:28;4.77;;;2.80;;
4595;SDS011;2310;49.978;8.742;2024-02-04T03:59:30;7.50;;;3.20;;
4595;SDS011;2310;49.978;8.742;2024-02-04T04:03:31;6.10;;;3.40;;
4595;SDS011;2310;49.978;8.742;2024-02-04T04:07:33;5.40;;;2.93;;
4595;SDS011;2310;49.978;8.742;2024-02-04T04:11:34;4.90;;;3.07;;
4595;SDS011;2310;49.978;8.742;2024-02-04T04:15:35;5.20;;;3.40;;
4595;SDS011;2310;49.978;8.742;2024-02-04T04:19:38;4.97;;;3.10;;
4595;SDS011;2310;49.978;8.742;2024-02-04T04:23:41;4.77;;;2.83;;
4595;SDS011;2310;49.978;8.742;2024-02-04T04:27:42;4.73;;;2.87;;
4595;SDS011;2310;49.978;8.742;2024-02-04T04:31:43;4.17;;;2.20;;
4595;SDS011;2310;49.978;8.742;2024-02-04T04:35:46;4.40;;;2.23;;
4595;SDS011;2310;49.978;8.742;2024-02-04T04:39:48;4.37;;;2.30;;
4595;SDS011;2310;49.978;8.742;2024-02-04T04:43:49;3.90;;;2.20;;
4595;SDS011;2310;49.978;8.742;2024-02-04T04:47:51;4.20;;;2.17;;
4595;SDS011;2310;49.978;8.742;2024-02-04T04:51:52;5.33;;;2.23;;
4595;SDS011;2310;49.978;8.742;2024-02-04T04:55:54;4.40;;;2.67;;
4595;SDS011;2310;49.978;8.742;2024-02-04T04:59:55;5.53;;;2.30;;
4595;SDS011;2310;49.978;8.742;2024-02-04T05:03:59;4.90;;;2.87;;
4595;SDS011;2310;49.978;8.742;2024-02-04T05:08:02;4.20;;;2.60;;
4595;SDS011;2310;49.978;8.742;2024-02-04T05:12:03;4.20;;;2.23;;
4595;SDS011;2310;49.978;8.742;2024-02-04T05:16:05;5.13;;;2.87;;
4595;SDS011;2310;49.978;8.742;2024-02-04T05:20:07;8.33;;;3.70;;
4595;SDS011;2310;49.978;8.742;2024-02-04T05:24:08;4.47;;;2.63;;
4595;SDS011;2310;49.978;8.742;2024-02-04T05:28:10;5.00;;;2.90;;
4595;SDS011;2310;49.978;8.742;2024-02-04T05:32:11;4.80;;;2.50;;
4595;SDS011;2310;49.978;8.742;2024-02-04T05:36:13;4.70;;;2.67;;
4595;SDS011;2310;49.978;8.742;2024-02-04T05:40:14;4.90;;;3.00;;
4595;SDS011;2310;49.978;8.742;2024-02-04T05:44:18;5.87;;;2.53;;
4595;SDS011;2310;49.978;8.742;2024-02-04T05:51:08;4.23;;;2.20;;
4595;SDS011;2310;49.978;8.742;2024-02-04T05:55:10;3.70;;;2.10;;
4595;SDS011;2310;49.978;8.742;2024-02-04T05:59:12;3.37;;;1.67;;
4595;SDS011;2310;49.978;8.742;2024-02-04T06:03:13;4.63;;;1.97;;
4595;SDS011;2310;49.978;8.742;2024-02-04T06:07:15;3.70;;;1.37;;
4595;SDS011;2310;49.978;8.742;2024-02-04T06:11:16;3.70;;;1.90;;
4595;SDS011;2310;49.978;8.742;2024-02-04T06:15:18;3.60;;;1.63;;
4595;SDS011;2310;49.978;8.742;2024-02-04T06:19:21;4.07;;;1.40;;
4595;SDS011;2310;49.978;8.742;2024-02-04T06:23:22;3.33;;;1.50;;
4595;SDS011;2310;49.978;8.742;2024-02-04T06:27:24;4.20;;;2.30;;
4595;SDS011;2310;49.978;8.742;2024-02-04T06:31:25;3.63;;;1.47;;
4595;SDS011;2310;49.978;8.742;2024-02-04T06:35:27;3.60;;;1.30;;
4595;SDS011;2310;49.978;8.742;2024-02-04T06:39:28;3.20;;;1.30;;
4595;SDS011;2310;49.978;8.742;2024-02-04T06:43:29;3.47;;;1.47;;
4595;SDS011;2310;49.978;8.742;2024-02-04T06:47:33;3.30;;;1.20;;
4595;SDS011;2310;49.978;8.742;2024-02-04T06:51:35;3.30;;;1.30;;
4595;SDS011;2310;49.978;8.742;2024-02-04T06:55:36;3.47;;;1.20;;
4595;SDS011;2310;49.978;8.742;2024-02-04T06:59:37;3.17;;;1.30;;
4595;SDS011;2310;49.978;8.742;2024-02-04T07:03:39;3.50;;;1.70;;
4595;SDS011;2310;49.978;8.742;2024-02-04T07:07:40;3.33;;;1.20;;
4595;SDS011;2310;49.978;8.742;2024-02-04T07:11:42;3.60;;;1.40;;
4595;SDS011;2310;49.978;8.742;2024-02-04T07:15:43;3.30;;;1.10;;
4595;SDS011;2310;49.978;8.742;2024-02-04T07:19:45;3.37;;;1.43;;
4595;SDS011;2310;49.978;8.742;2024-02-04T07:23:47;3.60;;;0.93;;
4595;SDS011;2310;49.978;8.742;2024-02-04T07:27:48;3.30;;;1.10;;
4595;SDS011;2310;49.978;8.742;2024-02-04T07:31:49;3.13;;;1.00;;
4595;SDS011;2310;49.978;8.742;2024-02-04T07:35:51;2.87;;;0.97;;
4595;SDS011;2310;49.978;8.742;2024-02-04T07:39:52;2.90;;;0.90;;
4595;SDS011;2310;49.978;8.742;2024-02-04T07:43:54;3.20;;;0.93;;
4595;SDS011;2310;49.978;8.742;2024-02-04T07:47:55;2.90;;;1.10;;
4595;SDS011;2310;49.978;8.742;2024-02-04T07:51:57;2.70;;;0.80;;
4595;SDS011;2310;49.978;8.742;2024-02-04T07:55:58;4.40;;;0.77;;
4595;SDS011;2310;49.978;8.742;2024-02-04T08:00:00;3.50;;;0.90;;
4595;SDS011;2310;49.978;8.742;2024-02-04T08:04:05;4.90;;;0.80;;
4595;SDS011;2310;49.978;8.742;2024-02-04T08:08:08;2.60;;;0.50;;
4595;SDS011;2310;49.978;8.742;2024-02-04T08:12:10;3.23;;;0.53;;
4595;SDS011;2310;49.978;8.742;2024-02-04T08:16:11;2.57;;;0.50;;
4595;SDS011;2310;49.978;8.742;2024-02-04T08:20:13;3.00;;;0.70;;
4595;SDS011;2310;49.978;8.742;2024-02-04T08:24:15;3.23;;;0.80;;
4595;SDS011;2310;49.978;8.742;2024-02-04T08:28:16;2.60;;;0.53;;
4595;SDS011;2310;49.978;8.742;2024-02-04T08:32:18;2.70;;;0.60;;
4595;SDS011;2310;49.978;8.742;2024-02-04T08:36:19;2.83;;;0.80;;
4595;SDS011;2310;49.978;8.742;2024-02-04T08:40:21;2.70;;;0.60;;
4595;SDS011;2310;49.978;8.742;2024-02-04T08:44:22;2.60;;;0.60;;
4595;SDS011;2310;49.978;8.742;2024-02-04T08:48:26;2.70;;;0.60;;
4595;SDS011;2310;49.978;8.742;2024-02-04T08:52:27;2.70;;;0.50;;
4595;SDS011;2310;49.978;8.742;2024-02-04T08:56:29;3.07;;;0.60;;
4595;SDS011;2310;49.978;8.742;2024-02-04T09:00:30;2.90;;;0.70;;
4595;SDS011;2310;49.978;8.742;2024-02-04T09:04:32;2.90;;;0.63;;
4595;SDS011;2310;49.978;8.742;2024-02-04T09:08:33;2.77;;;0.60;;
4595;SDS011;2310;49.978;8.742;2024-02-04T09:12:34;3.00;;;0.90;;
4595;SDS011;2310;49.978;8.742;2024-02-04T09:16:39;2.80;;;0.53;;
4595;SDS011;2310;49.978;8.742;2024-02-04T09:20:40;2.80;;;0.77;;
4595;SDS011;2310;49.978;8.742;2024-02-04T09:24:42;2.60;;;0.53;;
4595;SDS011;2310;49.978;8.742;2024-02-04T09:28:43;4.17;;;0.83;;
4595;SDS011;2310;49.978;8.742;2024-02-04T09:32:45;2.70;;;0.63;;
4595;SDS011;2310;49.978;8.742;2024-02-04T09:36:47;4.50;;;2.50;;
4595;SDS011;2310;49.978;8.742;2024-02-04T09:40:49;3.00;;;1.07;;
4595;SDS011;2310;49.978;8.742;2024-02-04T09:44:50;3.00;;;1.50;;
4595;SDS011;2310;49.978;8.742;2024-02-04T09:48:53;3.40;;;1.33;;
4595;SDS011;2310;49.978;8.742;2024-02-04T09:52:58;3.10;;;1.10;;
4595;SDS011;2310;49.978;8.742;2024-02-04T09:57:03;5.93;;;3.53;;
4595;SDS011;2310;49.978;8.742;2024-02-04T10:01:05;3.77;;;1.80;;
4595;SDS011;2310;49.978;8.742;2024-02-04T10:05:09;4.30;;;1.60;;
4595;SDS011;2310;49.978;8.742;2024-02-04T10:09:12;3.70;;;1.13;;
4595;SDS011;2310;49.978;8.742;2024-02-04T10:13:13;3.30;;;1.27;;
4595;SDS011;2310;49.978;8.742;2024-02-04T10:17:15;3.27;;;0.83;;
4595;SDS011;2310;49.978;8.742;2024-02-04T10:21:17;2.90;;;1.00;;
4595;SDS011;2310;49.978;8.742;2024-02-04T10:25:20;4.03;;;1.40;;
4595;SDS011;2310;49.978;8.742;2024-02-04T10:29:22;3.10;;;1.27;;
4595;SDS011;2310;49.978;8.742;2024-02-04T10:33:25;3.30;;;1.10;;
4595;SDS011;2310;49.978;8.742;2024-02-04T10:37:26;3.73;;;1.20;;
4595;SDS011;2310;49.978;8.742;2024-02-04T10:41:30;2.90;;;0.90;;
4595;SDS011;2310;49.978;8.742;2024-02-04T10:45:34;4.17;;;1.30;;
4595;SDS011;2310;49.978;8.742;2024-02-04T10:49:39;3.20;;;1.10;;
4595;SDS011;2310;49.978;8.742;2024-02-04T10:53:46;2.70;;;0.60;;
4595;SDS011;2310;49.978;8.742;2024-02-04T10:57:47;2.80;;;0.83;;
4595;SDS011;2310;49.978;8.742;2024-02-04T11:01:49;5.00;;;1.83;;
4595;SDS011;2310;49.978;8.742;2024-02-04T11:05:51;4.57;;;2.27;;
4595;SDS011;2310;49.978;8.742;2024-02-04T11:09:53;3.17;;;1.10;;
4595;SDS011;2310;49.978;8.742;2024-02-04T11:13:56;2.90;;;0.87;;
4595;SDS011;2310;49.978;8.742;2024-02-04T11:26:54;2.80;;;0.80;;
4595;SDS011;2310;49.978;8.742;2024-02-04T11:30:56;3.20;;;1.23;;
4595;SDS011;2310;49.978;8.742;2024-02-04T11:34:58;3.10;;;0.90;;
4595;SDS011;2310;49.978;8.742;2024-02-04T11:39:01;3.00;;;0.80;;
4595;SDS011;2310;49.978;8.742;2024-02-04T11:43:07;2.70;;;0.80;;
4595;SDS011;2310;49.978;8.742;2024-02-04T11:47:11;3.00;;;0.97;;
4595;SDS011;2310;49.978;8.742;2024-02-04T11:51:12;3.80;;;1.33;;
4595;SDS011;2310;49.978;8.742;2024-02-04T11:55:14;3.20;;;1.23;;
4595;SDS011;2310;49.978;8.742;2024-02-04T11:59:16;3.27;;;1.30;;
4595;SDS011;2310;49.978;8.742;2024-02-04T12:03:28;3.10;;;1.50;;
4595;SDS011;2310;49.978;8.742;2024-02-04T12:07:32;3.07;;;1.30;;
4595;SDS011;2310;49.978;8.742;2024-02-04T12:11:34;3.50;;;1.47;;
4595;SDS011;2310;49.978;8.742;2024-02-04T12:15:37;4.30;;;1.90;;
4595;SDS011;2310;49.978;8.742;2024-02-04T12:19:40;3.80;;;1.73;;
4595;SDS011;2310;49.978;8.742;2024-02-04T12:23:43;3.30;;;1.37;;
4595;SDS011;2310;49.978;8.742;2024-02-04T12:27:45;3.37;;;1.37;;
4595;SDS011;2310;49.978;8.742;2024-02-04T12:31:48;3.93;;;1.63;;
4595;SDS011;2310;49.978;8.742;2024-02-04T12:35:53;3.20;;;1.43;;
4595;SDS011;2310;49.978;8.742;2024-02-04T12:39:57;4.53;;;2.20;;
4595;SDS011;2310;49.978;8.742;2024-02-04T12:44:00;5.30;;;2.30;;
4595;SDS011;2310;49.978;8.742;2024-02-04T12:48:03;4.90;;;3.03;;
4595;SDS011;2310;49.978;8.742;2024-02-04T12:52:06;4.30;;;1.93;;
4595;SDS011;2310;49.978;8.742;2024-02-04T12:56:08;3.60;;;1.73;;
4595;SDS011;2310;49.978;8.742;2024-02-04T13:00:10;4.03;;;2.17;;
4595;SDS011;2310;49.978;8.742;2024-02-04T13:04:13;3.67;;;1.60;;
4595;SDS011;2310;49.978;8.742;2024-02-04T13:08:14;3.27;;;1.40;;
4595;SDS011;2310;49.978;8.742;2024-02-04T13:12:20;3.47;;;1.80;;
4595;SDS011;2310;49.978;8.742;2024-02-04T13:16:22;3.77;;;1.90;;
4595;SDS011;2310;49.978;8.742;2024-02-04T13:20:25;3.33;;;1.60;;
4595;SDS011;2310;49.978;8.742;2024-02-04T13:24:29;3.77;;;1.83;;
4595;SDS011;2310;49.978;8.742;2024-02-04T13:28:31;5.80;;;1.70;;
4595;SDS011;2310;49.978;8.742;2024-02-04T13:32:32;3.60;;;1.77;;
4595;SDS011;2310;49.978;8.742;2024-02-04T13:36:33;4.47;;;2.77;;
4595;SDS011;2310;49.978;8.742;2024-02-04T13:40:35;4.60;;;2.70;;
4595;SDS011;2310;49.978;8.742;2024-02-04T13:44:36;4.10;;;1.73;;
4595;SDS011;2310;49.978;8.742;2024-02-04T13:48:38;4.20;;;2.10;;
4595;SDS011;2310;49.978;8.742;2024-02-04T13:52:39;5.20;;;2.87;;
4595;SDS011;2310;49.978;8.742;2024-02-04T13:56:41;4.77;;;3.03;;
4595;SDS011;2310;49.978;8.742;2024-02-04T14:00:43;3.83;;;1.37;;
4595;SDS011;2310;49.978;8.742;2024-02-04T14:04:44;3.83;;;1.90;;
4595;SDS011;2310;49.978;8.742;2024-02-04T14:08:46;5.17;;;2.63;;
4595;SDS011;2310;49.978;8.742;2024-02-04T14:12:48;3.50;;;1.30;;
4595;SDS011;2310;49.978;8.742;2024-02-04T14:16:50;4.23;;;1.50;;
4595;SDS011;2310;49.978;8.742;2024-02-04T14:20:52;3.73;;;1.30;;
4595;SDS011;2310;49.978;8.742;2024-02-04T14:24:53;4.93;;;1.60;;
4595;SDS011;2310;49.978;8.742;2024-02-04T14:28:55;3.90;;;1.70;;
4595;SDS011;2310;49.978;8.742;2024-02-04T14:32:56;4.57;;;2.10;;
4595;SDS011;2310;49.978;8.742;2024-02-04T14:36:58;2.77;;;0.90;;
4595;SDS011;2310;49.978;8.742;2024-02-04T14:41:00;2.97;;;0.90;;
4595;SDS011;2310;49.978;8.742;2024-02-04T14:45:01;2.80;;;0.90;;
4595;SDS011;2310;49.978;8.742;2024-02-04T14:49:03;3.03;;;1.20;;
4595;SDS011;2310;49.978;8.742;2024-02-04T14:53:06;3.47;;;1.43;;
4595;SDS011;2310;49.978;8.742;2024-02-04T14:57:07;3.97;;;1.40;;
4595;SDS011;2310;49.978;8.742;2024-02-04T15:01:09;2.90;;;0.70;;
4595;SDS011;2310;49.978;8.742;2024-02-04T15:05:11;3.27;;;1.33;;
4595;SDS011;2310;49.978;8.742;2024-02-04T15:09:13;2.90;;;0.97;;
4595;SDS011;2310;49.978;8.742;2024-02-04T15:13:16;4.00;;;0.77;;
4595;SDS011;2310;49.978;8.742;2024-02-04T15:17:18;3.23;;;1.10;;
4595;SDS011;2310;49.978;8.742;2024-02-04T15:21:20;2.93;;;0.93;;
4595;SDS011;2310;49.978;8.742;2024-02-04T15:25:24;2.90;;;0.80;;
4595;SDS011;2310;49.978;8.742;2024-02-04T15:29:26;2.80;;;0.90;;
4595;SDS011;2310;49.978;8.742;2024-02-04T15:33:28;2.90;;;0.80;;
4595;SDS011;2310;49.978;8.742;2024-02-04T15:37:31;2.90;;;0.80;;
4595;SDS011;2310;49.978;8.742;2024-02-04T15:41:32;3.00;;;0.77;;
4595;SDS011;2310;49.978;8.742;2024-02-04T15:45:34;3.20;;;0.70;;
4595;SDS011;2310;49.978;8.742;2024-02-04T15:49:38;2.90;;;1.00;;
4595;SDS011;2310;49.978;8.742;2024-02-04T15:53:42;2.90;;;0.70;;
4595;SDS011;2310;49.978;8.742;2024-02-04T15:57:44;3.57;;;0.90;;
4595;SDS011;2310;49.978;8.742;2024-02-04T16:01:50;3.17;;;1.13;;
4595;SDS011;2310;49.978;8.742;2024-02-04T16:05:53;3.73;;;1.70;;
4595;SDS011;2310;49.978;8.742;2024-02-04T16:09:55;3.80;;;1.57;;
4595;SDS011;2310;49.978;8.742;2024-02-04T16:13:57;5.60;;;1.50;;
4595;SDS011;2310;49.978;8.742;2024-02-04T16:18:02;3.30;;;1.60;;
4595;SDS011;2310;49.978;8.742;2024-02-04T16:22:04;3.90;;;1.87;;
4595;SDS011;2310;49.978;8.742;2024-02-04T16:26:06;4.40;;;2.30;;
4595;SDS011;2310;49.978;8.742;2024-02-04T16:30:08;4.33;;;2.27;;
4595;SDS011;2310;49.978;8.742;2024-02-04T16:34:11;3.73;;;2.50;;
4595;SDS011;2310;49.978;8.742;2024-02-04T16:38:12;4.50;;;2.20;;
4595;SDS011;2310;49.978;8.742;2024-02-04T16:42:15;5.73;;;2.30;;
4595;SDS011;2310;49.978;8.742;2024-02-04T16:46:16;3.07;;;1.50;;
4595;SDS011;2310;49.978;8.742;2024-02-04T16:50:17;4.00;;;1.80;;
4595;SDS011;2310;49.978;8.742;2024-02-04T16:54:19;4.07;;;1.70;;
4595;SDS011;2310;49.978;8.742;2024-02-04T16:58:24;3.20;;;1.40;;
4595;SDS011;2310;49.978;8.742;2024-02-04T17:02:25;3.87;;;1.67;;
4595;SDS011;2310;49.978;8.742;2024-02-04T17:06:27;3.20;;;1.30;;
4595;SDS011;2310;49.978;8.742;2024-02-04T17:10:32;3.17;;;1.77;;
4595;SDS011;2310;49.978;8.742;2024-02-04T17:14:34;4.37;;;1.73;;
4595;SDS011;2310;49.978;8.742;2024-02-04T17:18:48;5.03;;;1.53;;
4595;SDS011;2310;49.978;8.742;2024-02-04T17:23:03;3.63;;;1.70;;
4595;SDS011;2310;49.978;8.742;2024-02-04T17:27:06;3.20;;;1.33;;
4595;SDS011;2310;49.978;8.742;2024-02-04T17:31:08;3.23;;;1.63;;
4595;SDS011;2310;49.978;8.742;2024-02-04T17:35:10;3.77;;;1.83;;
4595;SDS011;2310;49.978;8.742;2024-02-04T17:39:12;3.00;;;1.30;;
4595;SDS011;2310;49.978;8.742;2024-02-04T17:43:13;4.83;;;2.90;;
4595;SDS011;2310;49.978;8.742;2024-02-04T17:47:15;5.70;;;3.30;;
4595;SDS011;2310;49.978;8.742;2024-02-04T17:51:17;3.60;;;1.70;;
4595;SDS011;2310;49.978;8.742;2024-02-04T17:55:19;4.40;;;1.60;;
4595;SDS011;2310;49.978;8.742;2024-02-04T17:59:21;3.70;;;2.00;;
4595;SDS011;2310;49.978;8.742;2024-02-04T18:03:22;3.50;;;1.60;;
4595;SDS011;2310;49.978;8.742;2024-02-04T18:07:25;4.50;;;1.97;;
4595;SDS011;2310;49.978;8.742;2024-02-04T18:11:26;3.40;;;1.90;;
4595;SDS011;2310;49.978;8.742;2024-02-04T18:15:28;3.67;;;1.63;;
4595;SDS011;2310;49.978;8.742;2024-02-04T18:19:29;3.57;;;1.37;;
4595;SDS011;2310;49.978;8.742;2024-02-04T18:23:31;3.27;;;1.80;;
4595;SDS011;2310;49.978;8.742;2024-02-04T18:27:33;3.20;;;1.60;;
4595;SDS011;2310;49.978;8.742;2024-02-04T18:31:37;4.07;;;1.73;;
4595;SDS011;2310;49.978;8.742;2024-02-04T18:35:39;3.90;;;1.87;;
4595;SDS011;2310;49.978;8.742;2024-02-04T18:39:41;3.37;;;1.50;;
4595;SDS011;2310;49.978;8.742;2024-02-04T18:43:44;3.40;;;1.50;;
4595;SDS011;2310;49.978;8.742;2024-02-04T18:47:47;3.93;;;1.70;;
4595;SDS011;2310;49.978;8.742;2024-02-04T18:51:49;3.47;;;1.50;;
4595;SDS011;2310;49.978;8.742;2024-02-04T18:55:50;3.17;;;1.20;;
4595;SDS011;2310;49.978;8.742;2024-02-04T18:59:52;3.63;;;1.63;;
4595;SDS011;2310;49.978;8.742;2024-02-04T19:03:53;3.80;;;1.70;;
4595;SDS011;2310;49.978;8.742;2024-02-04T19:07:57;3.10;;;1.20;;
4595;SDS011;2310;49.978;8.742;2024-02-04T19:11:59;3.23;;;1.10;;
4595;SDS011;2310;49.978;8.742;2024-02-04T19:16:01;4.03;;;1.00;;
4595;SDS011;2310;49.978;8.742;2024-02-04T19:20:02;3.47;;;1.20;;
4595;SDS011;2310;49.978;8.742;2024-02-04T19:24:05;3.17;;;1.20;;
4595;SDS011;2310;49.978;8.742;2024-02-04T19:28:07;3.20;;;1.00;;
4595;SDS011;2310;49.978;8.742;2024-02-04T19:32:08;3.03;;;1.00;;
4595;SDS011;2310;49.978;8.742;2024-02-04T19:36:10;5.47;;;1.20;;
4595;SDS011;2310;49.978;8.742;2024-02-04T19:40:12;3.17;;;0.87;;
4595;SDS011;2310;49.978;8.742;2024-02-04T19:44:14;2.90;;;0.90;;
4595;SDS011;2310;49.978;8.742;2024-02-04T19:48:17;3.50;;;1.33;;
4595;SDS011;2310;49.978;8.742;2024-02-04T19:52:19;3.60;;;1.10;;
4595;SDS011;2310;49.978;8.742;2024-02-04T19:56:21;3.17;;;1.13;;
4595;SDS011;2310;49.978;8.742;2024-02-04T20:00:23;2.70;;;0.70;;
4595;SDS011;2310;49.978;8.742;2024-02-04T20:04:24;3.10;;;1.10;;
4595;SDS011;2310;49.978;8.742;2024-02-04T20:08:25;3.27;;;1.00;;
4595;SDS011;2310;49.978;8.742;2024-02-04T20:12:27;2.60;;;0.67;;
4595;SDS011;2310;49.978;8.742;2024-02-04T20:16:29;4.03;;;1.10;;
4595;SDS011;2310;49.978;8.742;2024-02-04T20:20:31;2.97;;;0.80;;
4595;SDS011;2310;49.978;8.742;2024-02-04T20:24:33;2.90;;;0.90;;
4595;SDS011;2310;49.978;8.742;2024-02-04T20:28:35;2.70;;;0.60;;
4595;SDS011;2310;49.978;8.742;2024-02-04T20:32:36;2.90;;;0.93;;
4595;SDS011;2310;49.978;8.742;2024-02-04T20:36:37;3.20;;;1.00;;
4595;SDS011;2310;49.978;8.742;2024-02-04T20:40:39;3.57;;;0.97;;
4595;SDS011;2310;49.978;8.742;2024-02-04T20:44:42;3.00;;;0.83;;
4595;SDS011;2310;49.978;8.742;2024-02-04T20:48:43;3.10;;;1.07;;
4595;SDS011;2310;49.978;8.742;2024-02-04T20:52:45;2.97;;;0.80;;
4595;SDS011;2310;49.978;8.742;2024-02-04T20:56:47;2.70;;;0.70;;
4595;SDS011;2310;49.978;8.742;2024-02-04T21:00:48;2.80;;;0.87;;
4595;SDS011;2310;49.978;8.742;2024-02-04T21:04:50;2.60;;;0.60;;
4595;SDS011;2310;49.978;8.742;2024-02-04T21:08:51;2.70;;;0.77;;
4595;SDS011;2310;49.978;8.742;2024-02-04T21:12:52;2.93;;;0.90;;
4595;SDS011;2310;49.978;8.742;2024-02-04T21:16:54;2.90;;;0.90;;
4595;SDS011;2310;49.978;8.742;2024-02-04T21:20:55;3.23;;;0.90;;
4595;SDS011;2310;49.978;8.742;2024-02-04T21:24:57;2.93;;;0.90;;
4595;SDS011;2310;49.978;8.742;2024-02-04T21:29:00;3.23;;;0.70;;
4595;SDS011;2310;49.978;8.742;2024-02-04T21:33:02;3.07;;;1.07;;
4595;SDS011;2310;49.978;8.742;2024-02-04T21:37:03;2.80;;;0.90;;
4595;SDS011;2310;49.978;8.742;2024-02-04T21:41:05;3.00;;;0.83;;
4595;SDS011;2310;49.978;8.742;2024-02-04T21:45:07;2.97;;;0.93;;
4595;SDS011;2310;49.978;8.742;2024-02-04T21:49:09;2.70;;;0.90;;
4595;SDS011;2310;49.978;8.742;2024-02-04T21:53:11;3.10;;;1.00;;
4595;SDS011;2310;49.978;8.742;2024-02-04T21:57:12;2.87;;;0.90;;
4595;SDS011;2310;49.978;8.742;2024-02-04T22:01:13;3.00;;;1.13;;
4595;SDS011;2310;49.978;8.742;2024-02-04T22:05:15;3.10;;;1.20;;
4595;SDS011;2310;49.978;8.742;2024-02-04T22:09:17;4.43;;;1.80;;
4595;SDS011;2310;49.978;8.742;2024-02-04T22:13:21;3.30;;;1.40;;
4595;SDS011;2310;49.978;8.742;2024-02-04T22:17:22;3.50;;;1.50;;
4595;SDS011;2310;49.978;8.742;2024-02-04T22:21:24;4.40;;;2.10;;
4595;SDS011;2310;49.978;8.742;2024-02-04T22:25:25;3.70;;;1.83;;
4595;SDS011;2310;49.978;8.742;2024-02-04T22:29:28;3.47;;;1.40;;
4595;SDS011;2310;49.978;8.742;2024-02-04T22:33:29;3.20;;;1.50;;
4595;SDS011;2310;49.978;8.742;2024-02-04T22:37:31;3.13;;;1.47;;
4595;SDS011;2310;49.978;8.742;2024-02-04T22:41:33;2.97;;;1.30;;
4595;SDS011;2310;49.978;8.742;2024-02-04T22:45:35;3.03;;;1.20;;
4595;SDS011;2310;49.978;8.742;2024-02-04T22:49:36;3.20;;;1.40;;
4595;SDS011;2310;49.978;8.742;2024-02-04T22:53:38;3.20;;;1.30;;
4595;SDS011;2310;49.978;8.742;2024-02-04T22:57:40;3.53;;;1.47;;
4595;SDS011;2310;49.978;8.742;2024-02-04T23:01:41;3.90;;;1.27;;
4595;SDS011;2310;49.978;8.742;2024-02-04T23:05:43;3.17;;;1.10;;
4595;SDS011;2310;49.978;8.742;2024-02-04T23:09:44;2.90;;;1.13;;
4595;SDS011;2310;49.978;8.742;2024-02-04T23:13:46;2.93;;;0.93;;
4595;SDS011;2310;49.978;8.742;2024-02-04T23:17:51;3.00;;;0.97;;
4595;SDS011;2310;49.978;8.742;2024-02-04T23:21:53;2.80;;;1.00;;
4595;SDS011;2310;49.978;8.742;2024-02-04T23:25:54;3.03;;;1.10;;
4595;SDS011;2310;49.978;8.742;2024-02-04T23:29:55;3.10;;;1.10;;
4595;SDS011;2310;49.978;8.742;2024-02-04T23:33:57;3.10;;;1.10;;
4595;SDS011;2310;49.978;8.742;2024-02-04T23:37:58;3.37;;;1.20;;
4595;SDS011;2310;49.978;8.742;2024-02-04T23:42:00;3.87;;;1.37;;
4595;SDS011;2310;49.978;8.742;2024-02-04T23:46:01;3.20;;;1.20;;
4595;SDS011;2310;49.978;8.742;2024-02-04T23:50:03;3.40;;;1.30;;
4595;SDS011;2310;49.978;8.742;2024-02-04T23:54:06;2.90;;;1.07;;
4595;SDS011;2310;49.978;8.742;2024-02-04T23:58:08;3.10;;;1.00;;
